Time,TemperatureF,DewpointF,PressureIn,WindDirection,WindDirectionDegrees,WindSpeedMPH,WindSpeedGustMPH,Humidity,HourlyPrecipIn,Conditions,Clouds,dailyrainin,SoftwareType,DateUTC
2013-04-20 00:01:00,43.1,31.0,29.75,West,276,6.2,22.0,62,0.00,RA,,0.00,WeatherDisplay:10.37,2013-04-20 04:01:00,
2013-04-20 00:06:00,43.0,31.3,29.75,West,263,4.1,22.0,63,0.00,RA,,0.00,WeatherDisplay:10.37,2013-04-20 04:06:00,
2013-04-20 00:11:00,43.0,30.9,29.75,SSW,200,7.6,22.0,62,0.00,,,0.00,WeatherDisplay:10.37,2013-04-20 04:11:00,
2013-04-20 00:16:00,42.9,30.8,29.75,SW,215,6.9,22.0,62,0.00,,,0.00,WeatherDisplay:10.37,2013-04-20 04:16:00,
2013-04-20 00:21:00,42.9,31.2,29.75,WSW,239,9.2,22.0,63,0.00,,,0.00,WeatherDisplay:10.37,2013-04-20 04:21:00,
2013-04-20 00:26:00,42.9,31.6,29.75,SSW,209,5.8,22.0,64,0.00,,,0.00,WeatherDisplay:10.37,2013-04-20 04:26:00,
2013-04-20 00:31:00,42.9,31.6,29.75,SW,223,6.1,22.0,64,0.00,,,0.00,WeatherDisplay:10.37,2013-04-20 04:31:00,
2013-04-20 00:36:00,42.8,31.1,29.75,WSW,241,6.8,22.0,63,0.00,,,0.00,WeatherDisplay:10.37,2013-04-20 04:36:00,
2013-04-20 00:41:00,42.8,30.7,29.75,West,269,10.2,22.0,62,0.00,,,0.00,WeatherDisplay:10.37,2013-04-20 04:41:00,
2013-04-20 00:46:00,42.8,31.1,29.75,SSW,199,6.2,22.0,63,0.00,,,0.00,WeatherDisplay:10.37,2013-04-20 04:46:00,
2013-04-20 00:51:00,42.8,31.1,29.76,WSW,256,3.1,22.0,63,0.00,,,0.00,WeatherDisplay:10.37,2013-04-20 04:51:00,
2013-04-20 00:56:00,42.7,30.6,29.76,West,270,11.4,22.0,62,0.00,,,0.00,WeatherDisplay:10.37,2013-04-20 04:56:00,
2013-04-20 01:01:00,42.6,30.9,29.76,West,267,7.2,22.0,63,0.00,,,0.00,WeatherDisplay:10.37,2013-04-20 05:01:00,
2013-04-20 01:06:00,42.5,30.8,29.76,WSW,245,4.8,22.0,63,0.00,,,0.00,WeatherDisplay:10.37,2013-04-20 05:06:00,
2013-04-20 01:11:00,42.4,30.7,29.75,WSW,239,9.1,22.0,63,0.00,,,0.00,WeatherDisplay:10.37,2013-04-20 05:11:00,
2013-04-20 01:16:00,42.4,30.7,29.75,SW,235,7.7,22.0,63,0.00,,,0.00,WeatherDisplay:10.37,2013-04-20 05:16:00,
2013-04-20 01:21:00,42.4,30.3,29.75,SSW,210,8.2,22.0,62,0.00,,,0.00,WeatherDisplay:10.37,2013-04-20 05:21:00,
2013-04-20 01:26:00,42.3,30.2,29.75,SW,217,8.5,22.0,62,0.00,,,0.00,WeatherDisplay:10.37,2013-04-20 05:26:00,
2013-04-20 01:31:00,42.2,30.1,29.75,SSW,207,8.3,22.0,62,0.00,,,0.00,WeatherDisplay:10.37,2013-04-20 05:31:00,
2013-04-20 01:36:00,42.2,30.5,29.74,SW,219,7.4,22.0,63,0.00,,,0.00,WeatherDisplay:10.37,2013-04-20 05:36:00,
2013-04-20 01:41:00,42.2,30.5,29.74,West,262,4.7,22.0,63,0.00,,,0.00,WeatherDisplay:10.37,2013-04-20 05:41:00,
2013-04-20 01:46:00,42.1,30.8,29.74,WSW,253,2.7,22.0,64,0.00,,,0.00,WeatherDisplay:10.37,2013-04-20 05:46:00,
2013-04-20 01:51:00,42.1,30.4,29.74,WSW,245,5.5,22.0,63,0.00,,,0.00,WeatherDisplay:10.37,2013-04-20 05:51:00,
2013-04-20 01:56:00,42.1,30.4,29.75,WSW,253,10.0,22.0,63,0.00,,,0.00,WeatherDisplay:10.37,2013-04-20 05:56:00,
2013-04-20 02:01:00,42.1,30.8,29.74,SSW,200,3.3,22.0,64,0.00,,,0.00,WeatherDisplay:10.37,2013-04-20 06:01:00,
2013-04-20 02:06:00,42.1,30.8,29.75,WSW,245,7.0,22.0,64,0.00,,,0.00,WeatherDisplay:10.37,2013-04-20 06:06:00,
2013-04-20 02:11:00,42.2,30.1,29.74,SW,225,7.6,22.0,62,0.00,,,0.00,WeatherDisplay:10.37,2013-04-20 06:11:00,
2013-04-20 02:16:00,42.2,30.1,29.73,SW,234,5.0,22.0,62,0.00,,,0.00,WeatherDisplay:10.37,2013-04-20 06:16:00,
2013-04-20 02:21:00,42.2,30.1,29.73,WSW,252,8.7,22.0,62,0.00,,,0.00,WeatherDisplay:10.37,2013-04-20 06:21:00,
2013-04-20 02:26:00,42.2,30.1,29.73,West,281,7.1,22.0,62,0.00,,,0.00,WeatherDisplay:10.37,2013-04-20 06:26:00,
2013-04-20 02:31:00,42.2,29.7,29.73,WSW,250,5.1,22.0,61,0.00,,,0.00,WeatherDisplay:10.37,2013-04-20 06:31:00,
2013-04-20 02:36:00,42.2,30.1,29.73,West,262,4.9,22.0,62,0.00,,,0.00,WeatherDisplay:10.37,2013-04-20 06:36:00,
2013-04-20 02:41:00,42.2,30.1,29.73,WSW,248,5.5,22.0,62,0.00,,,0.00,WeatherDisplay:10.37,2013-04-20 06:41:00,
2013-04-20 02:46:00,42.1,29.2,29.73,WSW,248,4.9,22.0,60,0.00,,,0.00,WeatherDisplay:10.37,2013-04-20 06:46:00,
2013-04-20 02:51:00,42.2,30.1,29.73,SSW,211,3.5,22.0,62,0.00,,,0.00,WeatherDisplay:10.37,2013-04-20 06:51:00,
2013-04-20 02:56:00,42.2,29.7,29.73,SW,217,5.4,22.0,61,0.00,,,0.00,WeatherDisplay:10.37,2013-04-20 06:56:00,
2013-04-20 03:01:00,42.3,28.6,29.73,SSE,153,5.8,22.0,58,0.00,,,0.00,WeatherDisplay:10.37,2013-04-20 07:01:00,
2013-04-20 03:06:00,42.2,28.9,29.73,WSW,242,8.7,22.0,59,0.00,,,0.00,WeatherDisplay:10.37,2013-04-20 07:06:00,
2013-04-20 03:11:00,42.4,28.7,29.73,WNW,294,5.9,22.0,58,0.00,,,0.00,WeatherDisplay:10.37,2013-04-20 07:11:00,
2013-04-20 03:16:00,42.4,28.2,29.73,WSW,250,9.0,22.0,57,0.00,,,0.00,WeatherDisplay:10.37,2013-04-20 07:16:00,
2013-04-20 03:21:00,42.4,28.7,29.73,SW,218,5.2,22.0,58,0.00,,,0.00,WeatherDisplay:10.37,2013-04-20 07:21:00,
2013-04-20 03:26:00,42.4,28.7,29.73,SW,228,7.1,22.0,58,0.00,,,0.00,WeatherDisplay:10.37,2013-04-20 07:26:00,
2013-04-20 03:31:00,42.4,28.2,29.73,SW,218,11.3,22.0,57,0.00,,,0.00,WeatherDisplay:10.37,2013-04-20 07:31:00,
2013-04-20 03:36:00,42.4,28.7,29.74,SW,215,9.4,22.0,58,0.00,,,0.00,WeatherDisplay:10.37,2013-04-20 07:36:00,
2013-04-20 03:41:00,42.2,28.9,29.73,West,278,10.5,24.2,59,0.00,,,0.00,WeatherDisplay:10.37,2013-04-20 07:41:00,
2013-04-20 03:46:00,42.0,29.5,29.74,SW,219,7.1,24.2,61,0.00,,,0.00,WeatherDisplay:10.37,2013-04-20 07:46:00,
2013-04-20 03:51:00,41.8,29.3,29.74,WSW,255,9.9,24.2,61,0.00,,,0.00,WeatherDisplay:10.37,2013-04-20 07:51:00,
2013-04-20 03:56:00,41.5,29.8,29.74,WNW,301,9.0,24.2,63,0.00,,,0.00,WeatherDisplay:10.37,2013-04-20 07:56:00,
2013-04-20 04:01:00,41.3,29.6,29.74,West,267,7.6,24.2,63,0.00,,,0.00,WeatherDisplay:10.37,2013-04-20 08:01:00,
2013-04-20 04:06:00,41.1,29.5,29.74,WSW,239,7.2,24.2,63,0.00,,,0.00,WeatherDisplay:10.37,2013-04-20 08:06:00,
2013-04-20 04:11:00,40.9,29.7,29.74,WSW,256,7.5,24.2,64,0.00,,,0.00,WeatherDisplay:10.37,2013-04-20 08:11:00,
2013-04-20 04:16:00,40.9,30.0,29.74,SSW,207,10.3,24.2,65,0.00,,,0.00,WeatherDisplay:10.37,2013-04-20 08:16:00,
2013-04-20 04:21:00,40.7,30.2,29.74,SSW,193,10.7,24.2,66,0.00,,,0.00,WeatherDisplay:10.37,2013-04-20 08:21:00,
2013-04-20 04:26:00,40.6,30.1,29.75,SSW,201,8.4,24.2,66,0.00,,,0.00,WeatherDisplay:10.37,2013-04-20 08:26:00,
2013-04-20 04:31:00,40.4,30.3,29.75,West,271,7.3,24.2,67,0.00,,,0.00,WeatherDisplay:10.37,2013-04-20 08:31:00,
2013-04-20 04:36:00,40.3,30.9,29.75,SW,224,7.7,24.2,69,0.00,,,0.00,WeatherDisplay:10.37,2013-04-20 08:36:00,
2013-04-20 04:41:00,40.2,30.8,29.75,SW,222,6.4,24.2,69,0.00,,,0.00,WeatherDisplay:10.37,2013-04-20 08:41:00,
2013-04-20 04:46:00,40.1,31.1,29.75,SSW,206,7.3,24.2,70,0.00,,,0.00,WeatherDisplay:10.37,2013-04-20 08:46:00,
2013-04-20 04:51:00,39.9,31.6,29.76,SSW,208,4.8,24.2,72,0.00,,,0.00,WeatherDisplay:10.37,2013-04-20 08:51:00,
2013-04-20 04:56:00,39.7,31.4,29.76,SW,236,8.0,24.2,72,0.00,,,0.00,WeatherDisplay:10.37,2013-04-20 08:56:00,
2013-04-20 05:01:00,39.6,31.3,29.76,SW,225,5.6,24.2,72,0.00,,,0.00,WeatherDisplay:10.37,2013-04-20 09:01:00,
2013-04-20 05:06:00,39.4,31.1,29.76,SW,228,6.9,24.2,72,0.00,,,0.00,WeatherDisplay:10.37,2013-04-20 09:06:00,
2013-04-20 05:11:00,39.2,31.3,29.76,SW,229,6.7,24.2,73,0.00,,,0.00,WeatherDisplay:10.37,2013-04-20 09:11:00,
2013-04-20 05:16:00,39.2,30.6,29.76,SW,221,4.2,24.2,71,0.00,,,0.00,WeatherDisplay:10.37,2013-04-20 09:16:00,
2013-04-20 05:21:00,39.1,30.1,29.77,SW,217,7.8,24.2,70,0.00,,,0.00,WeatherDisplay:10.37,2013-04-20 09:21:00,
2013-04-20 05:26:00,39.1,30.1,29.77,SW,235,4.9,24.2,70,0.00,,,0.00,WeatherDisplay:10.37,2013-04-20 09:26:00,
2013-04-20 05:31:00,39.0,30.0,29.77,SW,226,7.7,24.2,70,0.00,,,0.00,WeatherDisplay:10.37,2013-04-20 09:31:00,
2013-04-20 05:36:00,38.9,29.9,29.77,South,191,7.1,24.2,70,0.00,,,0.00,WeatherDisplay:10.37,2013-04-20 09:36:00,
2013-04-20 05:41:00,38.9,29.9,29.77,SSW,208,9.6,24.2,70,0.00,,,0.00,WeatherDisplay:10.37,2013-04-20 09:41:00,
2013-04-20 05:46:00,38.8,29.8,29.77,SW,228,6.1,24.2,70,0.00,,,0.00,WeatherDisplay:10.37,2013-04-20 09:46:00,
2013-04-20 05:51:00,38.8,29.5,29.77,SSW,200,5.6,24.2,69,0.00,,,0.00,WeatherDisplay:10.37,2013-04-20 09:51:00,
2013-04-20 05:56:00,38.8,29.5,29.77,SW,219,9.3,24.2,69,0.00,,,0.00,WeatherDisplay:10.37,2013-04-20 09:56:00,
2013-04-20 06:01:00,38.8,29.5,29.77,SSW,212,4.0,24.2,69,0.00,,,0.00,WeatherDisplay:10.37,2013-04-20 10:01:00,
2013-04-20 06:06:00,38.8,29.1,29.77,WSW,245,7.6,24.2,68,0.00,,,0.00,WeatherDisplay:10.37,2013-04-20 10:06:00,
2013-04-20 06:11:00,38.8,29.5,29.77,WSW,245,7.3,24.2,69,0.00,,,0.00,WeatherDisplay:10.37,2013-04-20 10:11:00,
2013-04-20 06:16:00,38.8,29.5,29.78,SSW,212,4.4,24.2,69,0.00,,,0.00,WeatherDisplay:10.37,2013-04-20 10:16:00,
2013-04-20 06:21:00,38.7,29.8,29.78,SSW,210,3.9,24.2,70,0.00,,,0.00,WeatherDisplay:10.37,2013-04-20 10:21:00,
2013-04-20 06:26:00,38.7,30.1,29.78,WSW,257,6.1,24.2,71,0.00,,,0.00,WeatherDisplay:10.37,2013-04-20 10:26:00,
2013-04-20 06:31:00,38.7,30.1,29.78,SW,219,8.9,24.2,71,0.00,,,0.00,WeatherDisplay:10.37,2013-04-20 10:31:00,
2013-04-20 06:36:00,38.6,30.4,29.79,South,179,10.3,24.2,72,0.00,,,0.00,WeatherDisplay:10.37,2013-04-20 10:36:00,
2013-04-20 06:41:00,38.6,30.7,29.80,WSW,250,10.4,24.2,73,0.00,,,0.00,WeatherDisplay:10.37,2013-04-20 10:41:00,
2013-04-20 06:46:00,38.5,31.3,29.80,SW,217,9.5,24.2,75,0.00,,,0.00,WeatherDisplay:10.37,2013-04-20 10:46:00,
2013-04-20 06:51:00,38.2,31.0,29.80,South,183,7.2,24.2,75,0.00,,,0.00,WeatherDisplay:10.37,2013-04-20 10:51:00,
2013-04-20 06:56:00,38.0,31.4,29.81,SW,225,5.6,24.2,77,0.00,,,0.00,WeatherDisplay:10.37,2013-04-20 10:56:00,
2013-04-20 07:01:00,37.8,31.6,29.81,SW,231,9.0,24.2,78,0.00,,,0.00,WeatherDisplay:10.37,2013-04-20 11:01:00,
2013-04-20 07:06:00,37.8,31.6,29.81,SSW,210,5.8,24.2,78,0.00,,,0.00,WeatherDisplay:10.37,2013-04-20 11:06:00,
2013-04-20 07:11:00,37.7,31.8,29.81,WSW,245,6.8,24.2,79,0.00,,,0.00,WeatherDisplay:10.37,2013-04-20 11:11:00,
2013-04-20 07:16:00,37.7,31.8,29.81,SW,219,6.7,24.2,79,0.00,,,0.00,WeatherDisplay:10.37,2013-04-20 11:16:00,
2013-04-20 07:21:00,37.8,31.9,29.81,SW,231,3.0,24.2,79,0.00,,,0.00,WeatherDisplay:10.37,2013-04-20 11:21:00,
2013-04-20 07:26:00,37.9,31.7,29.82,WSW,239,6.6,24.2,78,0.00,,,0.00,WeatherDisplay:10.37,2013-04-20 11:26:00,
2013-04-20 07:31:00,38.1,31.5,29.82,West,280,5.6,24.2,77,0.00,,,0.00,WeatherDisplay:10.37,2013-04-20 11:31:00,
2013-04-20 07:36:00,38.3,31.7,29.82,SW,229,6.7,24.2,77,0.00,,,0.00,WeatherDisplay:10.37,2013-04-20 11:36:00,
2013-04-20 07:41:00,38.4,32.1,29.82,SE,141,4.5,24.2,78,0.00,,,0.00,WeatherDisplay:10.37,2013-04-20 11:41:00,
2013-04-20 07:46:00,38.3,32.0,29.82,SSW,208,7.4,24.2,78,0.00,,,0.00,WeatherDisplay:10.37,2013-04-20 11:46:00,
2013-04-20 07:51:00,38.2,32.3,29.82,SSW,202,5.0,24.2,79,0.00,,,0.00,WeatherDisplay:10.37,2013-04-20 11:51:00,
2013-04-20 07:56:00,38.5,31.9,29.82,SW,225,9.6,24.2,77,0.00,,,0.00,WeatherDisplay:10.37,2013-04-20 11:56:00,
2013-04-20 08:01:00,38.9,31.6,29.82,SW,235,7.3,24.2,75,0.00,,,0.00,WeatherDisplay:10.37,2013-04-20 12:01:00,
2013-04-20 08:06:00,39.2,31.6,29.82,WSW,256,6.4,24.2,74,0.00,,,0.00,WeatherDisplay:10.37,2013-04-20 12:06:00,
2013-04-20 08:11:00,39.7,32.4,29.83,West,274,5.0,24.2,75,0.00,,,0.00,WeatherDisplay:10.37,2013-04-20 12:11:00,
2013-04-20 08:16:00,39.7,31.8,29.83,West,271,4.3,24.2,73,0.00,,,0.00,WeatherDisplay:10.37,2013-04-20 12:16:00,
2013-04-20 08:21:00,39.6,32.0,29.84,WSW,245,7.6,24.2,74,0.00,,,0.00,WeatherDisplay:10.37,2013-04-20 12:21:00,
2013-04-20 08:26:00,39.1,32.8,29.85,WSW,245,9.3,24.2,78,0.00,,,0.00,WeatherDisplay:10.37,2013-04-20 12:26:00,
2013-04-20 08:31:00,37.0,32.9,29.85,WNW,295,5.9,24.2,85,0.01,RA,,0.01,WeatherDisplay:10.37,2013-04-20 12:31:00,
2013-04-20 08:36:00,36.4,32.9,29.85,West,262,8.3,24.2,87,0.01,RA,,0.01,WeatherDisplay:10.37,2013-04-20 12:36:00,
2013-04-20 08:41:00,36.7,33.5,29.84,SSW,200,4.7,24.2,88,0.01,,,0.01,WeatherDisplay:10.37,2013-04-20 12:41:00,
2013-04-20 08:46:00,37.2,33.1,29.84,SW,226,5.8,24.2,85,0.01,,,0.01,WeatherDisplay:10.37,2013-04-20 12:46:00,
2013-04-20 08:51:00,37.7,33.0,29.84,SSE,158,6.1,24.2,83,0.01,,,0.01,WeatherDisplay:10.37,2013-04-20 12:51:00,
2013-04-20 08:56:00,38.2,32.3,29.84,SW,227,6.6,24.2,79,0.01,,,0.01,WeatherDisplay:10.37,2013-04-20 12:56:00,
2013-04-20 09:01:00,38.9,31.6,29.84,WSW,255,9.0,24.2,75,0.01,,,0.01,WeatherDisplay:10.37,2013-04-20 13:01:00,
2013-04-20 09:06:00,39.5,31.6,29.85,WNW,293,6.4,24.2,73,0.01,,,0.01,WeatherDisplay:10.37,2013-04-20 13:06:00,
2013-04-20 09:11:00,40.2,30.5,29.85,West,274,8.4,24.2,68,0.01,,,0.01,WeatherDisplay:10.37,2013-04-20 13:11:00,
2013-04-20 09:16:00,40.6,29.0,29.85,West,267,4.5,24.2,63,0.01,,,0.01,WeatherDisplay:10.37,2013-04-20 13:16:00,
2013-04-20 09:21:00,40.7,27.1,29.86,SW,225,12.2,24.2,58,0.01,,,0.01,WeatherDisplay:10.37,2013-04-20 13:21:00,
2013-04-20 09:26:00,41.0,27.3,29.86,West,274,11.9,24.2,58,0.01,,,0.01,WeatherDisplay:10.37,2013-04-20 13:26:00,
2013-04-20 09:31:00,40.9,27.7,29.86,WSW,241,10.2,24.2,59,0.00,,,0.01,WeatherDisplay:10.37,2013-04-20 13:31:00,
2013-04-20 09:36:00,41.1,28.3,29.86,West,263,8.1,24.2,60,0.00,,,0.01,WeatherDisplay:10.37,2013-04-20 13:36:00,
2013-04-20 09:41:00,41.3,27.2,29.87,SSW,204,10.7,24.2,57,0.00,,,0.01,WeatherDisplay:10.37,2013-04-20 13:41:00,
2013-04-20 09:46:00,40.7,27.5,29.87,WNW,287,9.5,24.2,59,0.00,,,0.01,WeatherDisplay:10.37,2013-04-20 13:46:00,
2013-04-20 09:51:00,40.3,27.1,29.87,West,276,8.3,24.2,59,0.00,,,0.01,WeatherDisplay:10.37,2013-04-20 13:51:00,
2013-04-20 09:56:00,40.0,27.2,29.88,West,281,8.8,24.2,60,0.00,,,0.01,WeatherDisplay:10.37,2013-04-20 13:56:00,
2013-04-20 10:01:00,39.9,27.1,29.88,West,259,7.3,24.2,60,0.00,,,0.01,WeatherDisplay:10.37,2013-04-20 14:01:00,
2013-04-20 10:06:00,39.7,27.7,29.89,WSW,242,9.6,24.2,62,0.00,,,0.01,WeatherDisplay:10.37,2013-04-20 14:06:00,
2013-04-20 10:11:00,39.3,26.6,29.89,SW,224,13.0,25.3,60,0.00,,,0.01,WeatherDisplay:10.37,2013-04-20 14:11:00,
2013-04-20 10:16:00,39.2,27.3,29.89,SW,222,7.5,25.3,62,0.00,,,0.01,WeatherDisplay:10.37,2013-04-20 14:16:00,
2013-04-20 10:21:00,39.4,28.2,29.90,SSW,210,6.0,25.3,64,0.00,,,0.01,WeatherDisplay:10.37,2013-04-20 14:21:00,
2013-04-20 10:26:00,39.5,28.3,29.91,SW,226,8.0,25.3,64,0.00,,,0.01,WeatherDisplay:10.37,2013-04-20 14:26:00,
2013-04-20 10:31:00,37.6,30.4,29.92,SW,218,8.2,25.3,75,0.00,,,0.01,WeatherDisplay:10.37,2013-04-20 14:31:00,
2013-04-20 10:36:00,35.9,30.6,29.92,SW,222,6.4,25.3,81,0.00,,,0.01,WeatherDisplay:10.37,2013-04-20 14:36:00,
2013-04-20 10:41:00,35.7,31.0,29.91,SSW,212,7.9,25.3,83,0.00,,,0.01,WeatherDisplay:10.37,2013-04-20 14:41:00,
2013-04-20 10:46:00,36.0,31.0,29.92,WSW,248,7.3,25.3,82,0.00,,,0.01,WeatherDisplay:10.37,2013-04-20 14:46:00,
2013-04-20 10:51:00,36.5,31.2,29.92,WSW,242,6.5,25.3,81,0.00,,,0.01,WeatherDisplay:10.37,2013-04-20 14:51:00,
2013-04-20 10:56:00,37.1,30.9,29.92,SSE,162,7.7,25.3,78,0.00,,,0.01,WeatherDisplay:10.37,2013-04-20 14:56:00,
2013-04-20 11:01:00,37.6,30.4,29.93,SW,224,11.4,25.3,75,0.00,,,0.01,WeatherDisplay:10.37,2013-04-20 15:01:00,
2013-04-20 11:06:00,37.9,28.6,29.93,WSW,245,10.7,25.3,69,0.00,,,0.01,WeatherDisplay:10.37,2013-04-20 15:06:00,
2013-04-20 11:11:00,38.2,27.8,29.93,SW,229,7.7,25.3,66,0.00,,,0.01,WeatherDisplay:10.37,2013-04-20 15:11:00,
2013-04-20 11:16:00,39.4,28.2,29.93,SW,222,6.2,25.3,64,0.00,,,0.01,WeatherDisplay:10.37,2013-04-20 15:16:00,
2013-04-20 11:21:00,40.4,28.4,29.94,WSW,249,10.3,25.3,62,0.00,,,0.01,WeatherDisplay:10.37,2013-04-20 15:21:00,
2013-04-20 11:26:00,41.5,29.0,29.94,SW,227,5.8,25.3,61,0.00,,,0.01,WeatherDisplay:10.37,2013-04-20 15:26:00,
2013-04-20 11:31:00,41.5,26.5,29.94,SSE,160,8.9,25.3,55,0.00,,,0.01,WeatherDisplay:10.37,2013-04-20 15:31:00,
2013-04-20 11:36:00,41.0,27.8,29.95,West,266,7.7,25.3,59,0.00,,,0.01,WeatherDisplay:10.37,2013-04-20 15:36:00,
2013-04-20 11:41:00,40.7,27.1,29.95,WSW,249,7.5,25.3,58,0.00,,,0.01,WeatherDisplay:10.37,2013-04-20 15:41:00,
2013-04-20 11:46:00,40.6,27.0,29.95,WSW,240,10.4,25.3,58,0.00,,,0.01,WeatherDisplay:10.37,2013-04-20 15:46:00,
2013-04-20 11:51:00,40.5,26.0,29.96,WSW,256,11.5,25.3,56,0.00,,,0.01,WeatherDisplay:10.37,2013-04-20 15:51:00,
2013-04-20 11:56:00,40.6,26.5,29.96,WNW,287,9.6,25.3,57,0.00,,,0.01,WeatherDisplay:10.37,2013-04-20 15:56:00,
2013-04-20 12:01:00,40.8,25.9,29.96,West,260,6.3,25.3,55,0.00,,,0.01,WeatherDisplay:10.37,2013-04-20 16:01:00,
2013-04-20 12:06:00,40.7,25.3,29.96,SW,229,13.4,25.3,54,0.00,,,0.01,WeatherDisplay:10.37,2013-04-20 16:06:00,
2013-04-20 12:11:00,41.0,24.7,29.97,SW,218,8.5,25.3,52,0.00,,,0.01,WeatherDisplay:10.37,2013-04-20 16:11:00,
2013-04-20 12:16:00,41.0,23.8,29.97,WSW,257,12.7,25.3,50,0.00,,,0.01,WeatherDisplay:10.37,2013-04-20 16:16:00,
2013-04-20 12:21:00,40.9,24.6,29.97,WSW,250,12.6,25.3,52,0.00,,,0.01,WeatherDisplay:10.37,2013-04-20 16:21:00,
2013-04-20 12:26:00,40.9,24.6,29.98,WSW,250,8.4,25.3,52,0.00,,,0.01,WeatherDisplay:10.37,2013-04-20 16:26:00,
2013-04-20 12:31:00,41.3,25.0,29.98,WSW,245,7.0,25.3,52,0.00,,,0.01,WeatherDisplay:10.37,2013-04-20 16:31:00,
2013-04-20 12:36:00,41.4,23.6,29.98,West,264,10.6,25.3,49,0.00,,,0.01,WeatherDisplay:10.37,2013-04-20 16:36:00,
2013-04-20 12:41:00,41.1,24.3,29.98,West,280,6.9,25.3,51,0.00,,,0.01,WeatherDisplay:10.37,2013-04-20 16:41:00,
2013-04-20 12:46:00,40.7,24.9,29.99,WNW,298,9.2,25.3,53,0.00,,,0.01,WeatherDisplay:10.37,2013-04-20 16:46:00,
2013-04-20 12:51:00,40.0,25.1,29.99,West,269,6.5,25.3,55,0.00,,,0.01,WeatherDisplay:10.37,2013-04-20 16:51:00,
2013-04-20 12:56:00,39.4,25.4,30.00,WSW,257,7.7,25.3,57,0.00,,,0.01,WeatherDisplay:10.37,2013-04-20 16:56:00,
2013-04-20 13:01:00,38.8,26.1,30.00,SSW,207,10.0,25.3,60,0.00,CLR,,0.01,WeatherDisplay:10.37,2013-04-20 17:01:00,
2013-04-20 13:06:00,38.6,25.9,30.01,West,271,9.3,25.3,60,0.00,CLR,,0.01,WeatherDisplay:10.37,2013-04-20 17:06:00,
2013-04-20 13:11:00,38.8,26.9,30.01,West,278,5.5,25.3,62,0.00,CLR,,0.01,WeatherDisplay:10.37,2013-04-20 17:11:00,
2013-04-20 13:16:00,39.0,25.5,30.01,West,271,10.1,25.3,58,0.00,CLR,,0.01,WeatherDisplay:10.37,2013-04-20 17:16:00,
2013-04-20 13:21:00,39.7,25.3,30.01,SSW,211,8.0,25.3,56,0.00,CLR,,0.01,WeatherDisplay:10.37,2013-04-20 17:21:00,
2013-04-20 13:26:00,39.9,25.5,30.01,West,267,8.2,25.3,56,0.00,CLR,,0.01,WeatherDisplay:10.37,2013-04-20 17:26:00,
2013-04-20 13:31:00,39.6,24.7,30.01,West,259,7.3,25.3,55,0.00,CLR,,0.01,WeatherDisplay:10.37,2013-04-20 17:31:00,
2013-04-20 13:36:00,39.6,24.7,30.02,WNW,293,9.9,25.3,55,0.00,CLR,,0.01,WeatherDisplay:10.37,2013-04-20 17:36:00,
2013-04-20 13:41:00,39.1,25.6,30.03,NW,315,6.5,25.3,58,0.00,CLR,,0.01,WeatherDisplay:10.37,2013-04-20 17:41:00,
2013-04-20 13:46:00,38.9,25.4,30.03,West,273,9.0,25.3,58,0.00,CLR,,0.01,WeatherDisplay:10.37,2013-04-20 17:46:00,
2013-04-20 13:51:00,38.9,25.4,30.03,WSW,248,7.6,25.3,58,0.00,CLR,,0.01,WeatherDisplay:10.37,2013-04-20 17:51:00,
2013-04-20 13:56:00,39.2,26.5,30.03,WSW,242,6.1,25.3,60,0.00,CLR,,0.01,WeatherDisplay:10.37,2013-04-20 17:56:00,
2013-04-20 14:01:00,39.6,25.6,30.04,West,260,10.2,25.3,57,0.00,CLR,,0.01,WeatherDisplay:10.37,2013-04-20 18:01:00,
2013-04-20 14:06:00,39.6,25.6,30.04,SW,227,7.0,25.3,57,0.00,CLR,,0.01,WeatherDisplay:10.37,2013-04-20 18:06:00,
2013-04-20 14:11:00,39.5,24.2,30.04,WSW,256,8.6,25.3,54,0.00,CLR,,0.01,WeatherDisplay:10.37,2013-04-20 18:11:00,
2013-04-20 14:16:00,39.4,23.7,30.05,WSW,246,10.0,25.3,53,0.00,CLR,,0.01,WeatherDisplay:10.37,2013-04-20 18:16:00,
2013-04-20 14:21:00,39.2,23.5,30.05,WNW,297,8.2,25.3,53,0.00,CLR,,0.01,WeatherDisplay:10.37,2013-04-20 18:21:00,
2013-04-20 14:26:00,39.2,24.4,30.05,West,269,8.6,25.3,55,0.00,CLR,,0.01,WeatherDisplay:10.37,2013-04-20 18:26:00,
2013-04-20 14:31:00,39.2,23.5,30.06,WSW,245,8.1,25.3,53,0.00,CLR,,0.01,WeatherDisplay:10.37,2013-04-20 18:31:00,
2013-04-20 14:36:00,39.2,23.5,30.06,SW,236,7.5,25.3,53,0.00,CLR,,0.01,WeatherDisplay:10.37,2013-04-20 18:36:00,
2013-04-20 14:41:00,39.2,23.0,30.07,West,269,9.1,25.3,52,0.00,CLR,,0.01,WeatherDisplay:10.37,2013-04-20 18:41:00,
2013-04-20 14:46:00,39.3,23.6,30.07,WSW,250,8.1,25.3,53,0.00,CLR,,0.01,WeatherDisplay:10.37,2013-04-20 18:46:00,
2013-04-20 14:51:00,38.9,24.1,30.07,WSW,250,10.0,25.3,55,0.00,CLR,,0.01,WeatherDisplay:10.37,2013-04-20 18:51:00,
2013-04-20 14:56:00,38.7,24.8,30.08,West,278,3.6,25.3,57,0.00,CLR,,0.01,WeatherDisplay:10.37,2013-04-20 18:56:00,
2013-04-20 15:01:00,38.8,24.4,30.08,West,263,9.1,25.3,56,0.00,CLR,,0.01,WeatherDisplay:10.37,2013-04-20 19:01:00,
2013-04-20 15:06:00,38.7,23.0,30.08,NW,322,7.1,25.3,53,0.00,CLR,,0.01,WeatherDisplay:10.37,2013-04-20 19:06:00,
2013-04-20 15:11:00,38.6,23.4,30.09,West,270,10.3,25.3,54,0.00,CLR,,0.01,WeatherDisplay:10.37,2013-04-20 19:11:00,
2013-04-20 15:16:00,38.8,24.4,30.09,SW,222,8.1,25.3,56,0.00,CLR,,0.01,WeatherDisplay:10.37,2013-04-20 19:16:00,
2013-04-20 15:21:00,38.9,25.4,30.10,NW,316,4.3,25.3,58,0.00,CLR,,0.01,WeatherDisplay:10.37,2013-04-20 19:21:00,
2013-04-20 15:26:00,38.6,24.7,30.10,West,277,5.2,25.3,57,0.00,CLR,,0.01,WeatherDisplay:10.37,2013-04-20 19:26:00,
2013-04-20 15:31:00,38.6,25.5,30.11,WSW,242,5.9,25.3,59,0.00,CLR,,0.01,WeatherDisplay:10.37,2013-04-20 19:31:00,
2013-04-20 15:36:00,38.3,24.8,30.11,West,259,6.9,25.3,58,0.00,CLR,,0.01,WeatherDisplay:10.37,2013-04-20 19:36:00,
2013-04-20 15:41:00,38.5,25.0,30.11,WSW,245,7.4,25.3,58,0.00,CLR,,0.01,WeatherDisplay:10.37,2013-04-20 19:41:00,
2013-04-20 15:46:00,38.5,24.1,30.11,SW,233,8.1,25.3,56,0.00,CLR,,0.01,WeatherDisplay:10.37,2013-04-20 19:46:00,
2013-04-20 15:51:00,38.4,24.1,30.11,WSW,248,8.1,25.3,56,0.00,CLR,,0.01,WeatherDisplay:10.37,2013-04-20 19:51:00,
2013-04-20 15:56:00,38.7,24.8,30.12,WNW,283,4.4,25.3,57,0.00,CLR,,0.01,WeatherDisplay:10.37,2013-04-20 19:56:00,
2013-04-20 16:01:00,38.7,24.8,30.12,West,278,5.1,25.3,57,0.00,CLR,,0.01,WeatherDisplay:10.37,2013-04-20 20:01:00,
2013-04-20 16:06:00,38.6,23.8,30.13,WSW,255,8.5,25.3,55,0.00,CLR,,0.01,WeatherDisplay:10.37,2013-04-20 20:06:00,
2013-04-20 16:11:00,38.5,24.6,30.13,WSW,248,5.3,25.3,57,0.00,CLR,,0.01,WeatherDisplay:10.37,2013-04-20 20:11:00,
2013-04-20 16:16:00,38.2,24.3,30.14,West,281,9.5,25.3,57,0.00,CLR,,0.01,WeatherDisplay:10.37,2013-04-20 20:16:00,
2013-04-20 16:21:00,38.0,25.3,30.14,West,278,4.7,25.3,60,0.00,CLR,,0.01,WeatherDisplay:10.37,2013-04-20 20:21:00,
2013-04-20 16:26:00,37.9,24.8,30.14,West,273,9.5,25.3,59,0.00,CLR,,0.01,WeatherDisplay:10.37,2013-04-20 20:26:00,
2013-04-20 16:31:00,37.7,24.2,30.15,West,280,9.2,25.3,58,0.00,CLR,,0.01,WeatherDisplay:10.37,2013-04-20 20:31:00,
2013-04-20 16:36:00,37.7,25.1,30.15,WNW,293,5.9,25.3,60,0.00,CLR,,0.01,WeatherDisplay:10.37,2013-04-20 20:36:00,
2013-04-20 16:41:00,37.6,25.0,30.15,WSW,248,6.7,25.3,60,0.00,CLR,,0.01,WeatherDisplay:10.37,2013-04-20 20:41:00,
2013-04-20 16:46:00,37.5,24.1,30.16,West,259,6.4,25.3,58,0.00,CLR,,0.01,WeatherDisplay:10.37,2013-04-20 20:46:00,
2013-04-20 16:51:00,37.4,24.4,30.16,SW,236,6.5,25.3,59,0.00,CLR,,0.01,WeatherDisplay:10.37,2013-04-20 20:51:00,
2013-04-20 16:56:00,37.4,24.0,30.17,West,271,5.5,25.3,58,0.00,CLR,,0.01,WeatherDisplay:10.37,2013-04-20 20:56:00,
2013-04-20 17:01:00,37.4,22.7,30.17,West,276,9.7,25.3,55,0.00,CLR,,0.01,WeatherDisplay:10.37,2013-04-20 21:01:00,
2013-04-20 17:06:00,37.5,23.6,30.17,WSW,254,8.9,25.3,57,0.00,CLR,,0.01,WeatherDisplay:10.37,2013-04-20 21:06:00,
2013-04-20 17:11:00,37.4,22.3,30.17,West,260,6.9,25.3,54,0.00,CLR,,0.01,WeatherDisplay:10.37,2013-04-20 21:11:00,
2013-04-20 17:16:00,37.5,24.1,30.18,WSW,257,4.1,25.3,58,0.00,CLR,,0.01,WeatherDisplay:10.37,2013-04-20 21:16:00,
2013-04-20 17:21:00,37.5,22.8,30.18,WNW,295,5.5,25.3,55,0.00,CLR,,0.01,WeatherDisplay:10.37,2013-04-20 21:21:00,
2013-04-20 17:26:00,37.8,23.5,30.19,SW,236,5.9,25.3,56,0.00,CLR,,0.01,WeatherDisplay:10.37,2013-04-20 21:26:00,
2013-04-20 17:31:00,37.5,21.5,30.19,WSW,248,12.0,25.3,52,0.00,CLR,,0.01,WeatherDisplay:10.37,2013-04-20 21:31:00,
2013-04-20 17:36:00,37.5,22.3,30.19,SSW,203,6.6,25.3,54,0.00,CLR,,0.01,WeatherDisplay:10.37,2013-04-20 21:36:00,
2013-04-20 17:41:00,37.4,22.3,30.20,NW,304,6.1,25.3,54,0.00,CLR,,0.01,WeatherDisplay:10.37,2013-04-20 21:41:00,
2013-04-20 17:46:00,37.6,21.5,30.20,West,269,4.4,25.3,52,0.00,CLR,,0.01,WeatherDisplay:10.37,2013-04-20 21:46:00,
2013-04-20 17:51:00,37.7,22.5,30.20,WNW,284,6.7,25.3,54,0.00,CLR,,0.01,WeatherDisplay:10.37,2013-04-20 21:51:00,
2013-04-20 17:56:00,37.8,22.6,30.21,WNW,302,5.6,25.3,54,0.00,CLR,,0.01,WeatherDisplay:10.37,2013-04-20 21:56:00,
2013-04-20 18:01:00,37.6,21.1,30.20,NW,305,8.6,25.3,51,0.00,CLR,,0.01,WeatherDisplay:10.37,2013-04-20 22:01:00,
2013-04-20 18:06:00,37.3,20.8,30.21,WNW,298,6.8,25.3,51,0.00,CLR,,0.01,WeatherDisplay:10.37,2013-04-20 22:06:00,
2013-04-20 18:11:00,37.3,21.3,30.22,West,267,8.6,25.3,52,0.00,CLR,,0.01,WeatherDisplay:10.37,2013-04-20 22:11:00,
2013-04-20 18:16:00,37.2,22.1,30.23,WSW,242,5.7,25.3,54,0.00,CLR,,0.01,WeatherDisplay:10.37,2013-04-20 22:16:00,
2013-04-20 18:21:00,37.0,21.0,30.22,WNW,297,8.8,25.3,52,0.00,CLR,,0.01,WeatherDisplay:10.37,2013-04-20 22:21:00,
2013-04-20 18:26:00,37.1,21.5,30.23,SW,218,5.6,25.3,53,0.00,CLR,,0.01,WeatherDisplay:10.37,2013-04-20 22:26:00,
2013-04-20 18:31:00,36.9,20.9,30.23,West,280,7.8,25.3,52,0.00,CLR,,0.01,WeatherDisplay:10.37,2013-04-20 22:31:00,
2013-04-20 18:36:00,36.7,21.2,30.24,WSW,256,7.3,25.3,53,0.00,CLR,,0.01,WeatherDisplay:10.37,2013-04-20 22:36:00,
2013-04-20 18:41:00,36.9,21.3,30.24,NNW,343,7.5,25.3,53,0.00,CLR,,0.01,WeatherDisplay:10.37,2013-04-20 22:41:00,
2013-04-20 18:46:00,37.1,22.4,30.25,West,266,5.7,25.3,55,0.00,CLR,,0.01,WeatherDisplay:10.37,2013-04-20 22:46:00,
2013-04-20 18:51:00,36.9,20.0,30.25,WSW,255,7.8,25.3,50,0.00,CLR,,0.01,WeatherDisplay:10.37,2013-04-20 22:51:00,
2013-04-20 18:56:00,36.8,20.8,30.25,North,351,3.9,25.3,52,0.00,CLR,,0.01,WeatherDisplay:10.37,2013-04-20 22:56:00,
2013-04-20 19:01:00,36.7,19.8,30.25,WNW,293,8.1,25.3,50,0.00,CLR,,0.01,WeatherDisplay:10.37,2013-04-20 23:01:00,
2013-04-20 19:06:00,37.1,21.5,30.25,SSW,195,6.4,25.3,53,0.00,CLR,,0.01,WeatherDisplay:10.37,2013-04-20 23:06:00,
2013-04-20 19:11:00,36.8,19.9,30.25,SSW,212,8.0,25.3,50,0.00,CLR,,0.01,WeatherDisplay:10.37,2013-04-20 23:11:00,
2013-04-20 19:16:00,36.6,19.7,30.26,West,276,11.7,25.3,50,0.00,CLR,,0.01,WeatherDisplay:10.37,2013-04-20 23:16:00,
2013-04-20 19:21:00,36.4,20.9,30.26,West,262,3.4,25.3,53,0.00,CLR,,0.01,WeatherDisplay:10.37,2013-04-20 23:21:00,
2013-04-20 19:26:00,36.3,20.8,30.26,WNW,293,4.8,25.3,53,0.00,CLR,,0.01,WeatherDisplay:10.37,2013-04-20 23:26:00,
2013-04-20 19:31:00,36.2,20.2,30.27,SSW,211,7.5,25.3,52,0.00,CLR,,0.01,WeatherDisplay:10.37,2013-04-20 23:31:00,
2013-04-20 19:36:00,36.1,20.6,30.27,West,262,6.9,25.3,53,0.00,CLR,,0.01,WeatherDisplay:10.37,2013-04-20 23:36:00,
2013-04-20 19:41:00,35.9,20.4,30.28,SSW,194,6.8,25.3,53,0.00,CLR,,0.01,WeatherDisplay:10.37,2013-04-20 23:41:00,
2013-04-20 19:46:00,35.7,20.7,30.28,SW,221,4.8,25.3,54,0.00,CLR,,0.01,WeatherDisplay:10.37,2013-04-20 23:46:00,
2013-04-20 19:51:00,35.6,21.4,30.28,West,264,4.2,25.3,56,0.00,CLR,,0.01,WeatherDisplay:10.37,2013-04-20 23:51:00,
2013-04-20 19:56:00,35.4,21.2,30.29,West,274,3.5,25.3,56,0.00,CLR,,0.01,WeatherDisplay:10.37,2013-04-20 23:56:00,
2013-04-20 20:01:00,35.3,22.0,30.30,NW,309,3.4,25.3,58,0.00,CLR,,0.01,WeatherDisplay:10.37,2013-04-21 00:01:00,
2013-04-20 20:06:00,35.3,21.6,30.30,WSW,253,2.9,25.3,57,0.00,CLR,,0.01,WeatherDisplay:10.37,2013-04-21 00:06:00,
2013-04-20 20:11:00,35.2,21.9,30.30,West,273,1.9,25.3,58,0.00,CLR,,0.01,WeatherDisplay:10.37,2013-04-21 00:11:00,
2013-04-20 20:16:00,35.1,21.4,30.31,WNW,284,2.5,25.3,57,0.00,CLR,,0.01,WeatherDisplay:10.37,2013-04-21 00:16:00,
2013-04-20 20:21:00,35.1,21.8,30.31,West,273,1.8,25.3,58,0.00,CLR,,0.01,WeatherDisplay:10.37,2013-04-21 00:21:00,
2013-04-20 20:26:00,35.1,21.8,30.31,NW,304,5.9,25.3,58,0.00,CLR,,0.01,WeatherDisplay:10.37,2013-04-21 00:26:00,
2013-04-20 20:31:00,35.1,21.4,30.32,West,273,5.0,25.3,57,0.00,CLR,,0.01,WeatherDisplay:10.37,2013-04-21 00:31:00,
2013-04-20 20:36:00,35.1,21.8,30.32,WSW,245,1.3,25.3,58,0.00,CLR,,0.01,WeatherDisplay:10.37,2013-04-21 00:36:00,
2013-04-20 20:41:00,35.1,22.2,30.33,WSW,252,2.1,25.3,59,0.00,CLR,,0.01,WeatherDisplay:10.37,2013-04-21 00:41:00,
2013-04-20 20:46:00,34.9,22.0,30.33,West,278,1.5,25.3,59,0.00,CLR,,0.01,WeatherDisplay:10.37,2013-04-21 00:46:00,
2013-04-20 20:51:00,34.8,21.5,30.33,NW,325,2.8,25.3,58,0.00,CLR,,0.01,WeatherDisplay:10.37,2013-04-21 00:51:00,
2013-04-20 20:56:00,34.8,21.9,30.34,West,277,4.6,25.3,59,0.00,CLR,,0.01,WeatherDisplay:10.37,2013-04-21 00:56:00,
2013-04-20 21:01:00,34.9,22.0,30.34,West,267,3.7,25.3,59,0.00,CLR,,0.01,WeatherDisplay:10.37,2013-04-21 01:01:00,
2013-04-20 21:06:00,34.9,21.6,30.35,SW,231,4.2,25.3,58,0.00,CLR,,0.01,WeatherDisplay:10.37,2013-04-21 01:06:00,
2013-04-20 21:11:00,34.9,21.2,30.35,West,276,5.7,25.3,57,0.00,CLR,,0.01,WeatherDisplay:10.37,2013-04-21 01:11:00,
2013-04-20 21:16:00,34.9,21.2,30.35,NW,308,4.2,25.3,57,0.00,CLR,,0.01,WeatherDisplay:10.37,2013-04-21 01:16:00,
2013-04-20 21:21:00,34.8,21.5,30.35,WSW,253,2.0,25.3,58,0.00,CLR,,0.01,WeatherDisplay:10.37,2013-04-21 01:21:00,
2013-04-20 21:26:00,34.8,21.9,30.36,West,276,1.4,25.3,59,0.00,CLR,,0.01,WeatherDisplay:10.37,2013-04-21 01:26:00,
2013-04-20 21:31:00,34.7,21.8,30.36,West,280,4.9,25.3,59,0.00,CLR,,0.01,WeatherDisplay:10.37,2013-04-21 01:31:00,
2013-04-20 21:36:00,34.8,21.9,30.36,West,274,4.1,25.3,59,0.00,CLR,,0.01,WeatherDisplay:10.37,2013-04-21 01:36:00,
2013-04-20 21:41:00,34.7,21.8,30.37,WSW,255,1.5,25.3,59,0.00,CLR,,0.01,WeatherDisplay:10.37,2013-04-21 01:41:00,
2013-04-20 21:46:00,34.7,22.2,30.37,WSW,239,2.2,25.3,60,0.00,CLR,,0.01,WeatherDisplay:10.37,2013-04-21 01:46:00,
2013-04-20 21:51:00,34.7,21.8,30.37,WSW,250,3.5,25.3,59,0.00,CLR,,0.01,WeatherDisplay:10.37,2013-04-21 01:51:00,
2013-04-20 21:56:00,34.7,21.8,30.38,West,271,4.2,25.3,59,0.00,CLR,,0.01,WeatherDisplay:10.37,2013-04-21 01:56:00,
2013-04-20 22:01:00,34.7,21.8,30.38,SW,233,1.8,25.3,59,0.00,CLR,,0.01,WeatherDisplay:10.37,2013-04-21 02:01:00,
2013-04-20 22:06:00,34.6,22.1,30.38,WNW,293,3.5,25.3,60,0.00,CLR,,0.01,WeatherDisplay:10.37,2013-04-21 02:06:00,
2013-04-20 22:11:00,34.5,22.0,30.38,WSW,248,2.2,25.3,60,0.00,CLR,,0.01,WeatherDisplay:10.37,2013-04-21 02:11:00,
2013-04-20 22:16:00,34.4,22.3,30.38,West,266,2.6,25.3,61,0.00,CLR,,0.01,WeatherDisplay:10.37,2013-04-21 02:16:00,
2013-04-20 22:21:00,34.4,22.3,30.38,West,259,0.8,25.3,61,0.00,CLR,,0.01,WeatherDisplay:10.37,2013-04-21 02:21:00,
2013-04-20 22:26:00,34.3,22.6,30.38,NW,316,0.4,25.3,62,0.00,CLR,,0.01,WeatherDisplay:10.37,2013-04-21 02:26:00,
2013-04-20 22:31:00,34.2,22.5,30.38,WSW,248,2.1,25.3,62,0.00,CLR,,0.01,WeatherDisplay:10.37,2013-04-21 02:31:00,
2013-04-20 22:36:00,34.1,22.4,30.39,West,271,1.7,25.3,62,0.00,CLR,,0.01,WeatherDisplay:10.37,2013-04-21 02:36:00,
2013-04-20 22:41:00,34.2,22.1,30.39,West,278,2.4,25.3,61,0.00,CLR,,0.01,WeatherDisplay:10.37,2013-04-21 02:41:00,
2013-04-20 22:46:00,34.0,22.3,30.39,WSW,252,4.4,25.3,62,0.00,CLR,,0.01,WeatherDisplay:10.37,2013-04-21 02:46:00,
2013-04-20 22:51:00,33.9,22.2,30.39,West,273,2.4,25.3,62,0.00,CLR,,0.01,WeatherDisplay:10.37,2013-04-21 02:51:00,
2013-04-20 22:56:00,33.8,22.9,30.39,West,281,0.1,25.3,64,0.00,CLR,,0.01,WeatherDisplay:10.37,2013-04-21 02:56:00,
2013-04-20 23:01:00,33.6,22.0,30.39,West,260,2.9,25.3,62,0.00,CLR,,0.01,WeatherDisplay:10.37,2013-04-21 03:01:00,
2013-04-20 23:06:00,33.7,22.4,30.40,NW,326,2.1,25.3,63,0.00,CLR,,0.01,WeatherDisplay:10.37,2013-04-21 03:06:00,
2013-04-20 23:11:00,33.7,22.4,30.40,West,269,1.3,25.3,63,0.00,CLR,,0.01,WeatherDisplay:10.37,2013-04-21 03:11:00,
2013-04-20 23:16:00,33.7,22.8,30.40,WSW,248,1.6,25.3,64,0.00,CLR,,0.01,WeatherDisplay:10.37,2013-04-21 03:16:00,
2013-04-20 23:21:00,33.6,22.7,30.40,WNW,293,0.7,25.3,64,0.00,CLR,,0.01,WeatherDisplay:10.37,2013-04-21 03:21:00,
2013-04-20 23:26:00,33.5,22.6,30.40,West,276,1.9,25.3,64,0.00,CLR,,0.01,WeatherDisplay:10.37,2013-04-21 03:26:00,
2013-04-20 23:31:00,33.5,23.0,30.41,WSW,245,1.4,25.3,65,0.00,CLR,,0.01,WeatherDisplay:10.37,2013-04-21 03:31:00,
2013-04-20 23:36:00,33.5,22.6,30.41,WNW,300,2.5,25.3,64,0.00,CLR,,0.01,WeatherDisplay:10.37,2013-04-21 03:36:00,
2013-04-20 23:41:00,33.5,22.6,30.41,WNW,285,2.3,25.3,64,0.00,CLR,,0.01,WeatherDisplay:10.37,2013-04-21 03:41:00,
2013-04-20 23:46:00,33.4,22.1,30.41,WNW,293,2.3,25.3,63,0.00,CLR,,0.01,WeatherDisplay:10.37,2013-04-21 03:46:00,
2013-04-20 23:51:00,33.3,22.4,30.41,WNW,298,0.0,3.5,64,0.00,CLR,,0.01,WeatherDisplay:10.37,2013-04-21 03:51:00,
2013-04-20 23:56:00,33.3,22.4,30.42,WSW,255,1.0,4.0,64,0.00,RA,,0.01,WeatherDisplay:10.37,2013-04-21 03:56:00,